createdAt,value
2022-11-05T00:00:36.375Z,8.70
2022-11-05T00:03:22.077Z,8.60
2022-11-05T00:06:11.273Z,8.50
2022-11-05T00:08:57.225Z,8.40
2022-11-05T00:11:44.065Z,8.30
2022-11-05T00:14:29.747Z,8.30
2022-11-05T00:16:56.736Z,8.20
2022-11-05T00:19:23.640Z,8.20
2022-11-05T00:22:09.236Z,8.10
2022-11-05T00:24:54.933Z,8.10
2022-11-05T00:27:21.777Z,8.10
2022-11-05T00:29:48.655Z,8.10
2022-11-05T00:32:15.565Z,8.10
2022-11-05T00:34:42.452Z,8.00
2022-11-05T00:37:09.462Z,8.00
2022-11-05T00:39:36.326Z,8.00
2022-11-05T00:42:21.678Z,8.00
2022-11-05T00:45:03.546Z,8.00
2022-11-05T00:47:50.683Z,8.10
2022-11-05T00:50:19.451Z,8.10
2022-11-05T00:52:56.662Z,8.10
2022-11-05T00:55:45.431Z,8.10
2022-11-05T00:58:15.197Z,8.10
2022-11-05T01:00:44.997Z,8.10
2022-11-05T01:03:14.520Z,8.10
2022-11-05T01:05:44.326Z,8.10
2022-11-05T01:08:12.960Z,8.00
2022-11-05T01:10:41.698Z,8.10
2022-11-05T01:13:12.989Z,8.00
2022-11-05T01:15:41.118Z,8.00
2022-11-05T01:18:08.144Z,8.00
2022-11-05T01:20:35.033Z,8.00
2022-11-05T01:23:01.943Z,8.00
2022-11-05T01:25:28.807Z,8.00
2022-11-05T01:27:55.930Z,7.90
2022-11-05T01:30:23.813Z,7.90
2022-11-05T01:32:50.758Z,7.90
2022-11-05T01:35:18.654Z,7.90
2022-11-05T01:37:46.371Z,7.90
2022-11-05T01:40:16.334Z,7.90
2022-11-05T01:42:43.257Z,7.90
2022-11-05T01:45:17.842Z,7.90
2022-11-05T01:47:59.530Z,7.90
2022-11-05T01:50:40.267Z,7.90
2022-11-05T01:53:13.582Z,7.90
2022-11-05T01:55:47.553Z,8.00
2022-11-05T01:58:19.640Z,7.90
2022-11-05T02:00:47.019Z,7.90
2022-11-05T02:03:16.243Z,7.90
2022-11-05T02:05:44.404Z,7.90
2022-11-05T02:08:19.648Z,7.90
2022-11-05T02:10:46.897Z,8.00
2022-11-05T02:13:14.046Z,7.90
2022-11-05T02:15:53.952Z,8.00
2022-11-05T02:18:38.614Z,7.90
2022-11-05T02:21:11.419Z,8.00
2022-11-05T02:23:59.191Z,8.00
2022-11-05T02:26:31.769Z,8.00
2022-11-05T02:29:19.740Z,8.00
2022-11-05T02:32:09.317Z,8.00
2022-11-05T02:35:02.507Z,8.00
2022-11-05T02:37:40.282Z,7.90
2022-11-05T02:40:27.695Z,8.00
2022-11-05T02:43:31.051Z,8.00
2022-11-05T02:46:26.895Z,8.00
2022-11-05T02:49:02.976Z,8.00
2022-11-05T02:51:51.066Z,7.90
2022-11-05T02:54:32.981Z,8.00
2022-11-05T02:57:03.017Z,8.00
2022-11-05T02:59:30.336Z,8.00
2022-11-05T03:01:58.422Z,8.00
2022-11-05T03:04:26.453Z,8.00
2022-11-05T03:07:08.423Z,8.00
2022-11-05T03:09:45.575Z,8.00
2022-11-05T03:12:46.202Z,8.10
2022-11-05T03:15:19.663Z,8.10
2022-11-05T03:18:21.810Z,8.10
2022-11-05T03:21:21.633Z,8.10
2022-11-05T03:23:54.908Z,8.10
2022-11-05T03:26:32.323Z,8.10
2022-11-05T03:29:36.632Z,8.00
2022-11-05T03:32:05.329Z,8.00
2022-11-05T03:34:38.539Z,7.90
2022-11-05T03:37:07.911Z,7.90
2022-11-05T03:39:50.670Z,7.90
2022-11-05T03:42:21.188Z,8.00
2022-11-05T03:44:58.093Z,7.90
2022-11-05T03:47:32.941Z,8.00
2022-11-05T03:50:11.929Z,7.90
2022-11-05T03:52:47.761Z,8.00
2022-11-05T03:55:15.300Z,8.10
2022-11-05T03:57:47.228Z,8.10
2022-11-05T04:00:14.962Z,8.20
2022-11-05T04:02:42.359Z,8.20
2022-11-05T04:05:09.665Z,8.30
2022-11-05T04:07:55.035Z,8.30
2022-11-05T04:10:40.321Z,8.20
2022-11-05T04:13:25.783Z,8.30
2022-11-05T04:16:13.028Z,8.30
2022-11-05T04:18:40.166Z,8.30
2022-11-05T04:21:26.649Z,8.30
2022-11-05T04:24:08.702Z,8.30
2022-11-05T04:26:43.977Z,8.20
2022-11-05T04:29:29.646Z,8.20
2022-11-05T04:31:56.929Z,8.30
2022-11-05T04:34:24.005Z,8.30
2022-11-05T04:36:52.523Z,8.40
2022-11-05T04:39:20.191Z,8.30
2022-11-05T04:41:50.842Z,8.30
2022-11-05T04:44:17.721Z,8.30
2022-11-05T04:46:44.663Z,8.30
2022-11-05T04:49:11.539Z,8.30
2022-11-05T04:51:38.420Z,8.30
2022-11-05T04:54:05.335Z,8.30
2022-11-05T04:56:32.291Z,8.40
2022-11-05T04:58:59.153Z,8.40
2022-11-05T05:01:26.270Z,8.20
2022-11-05T05:03:54.231Z,8.20
2022-11-05T05:06:21.771Z,8.10
2022-11-05T05:08:50.153Z,8.00
2022-11-05T05:11:19.362Z,7.90
2022-11-05T05:13:46.850Z,7.90
2022-11-05T05:16:25.811Z,7.90
2022-11-05T05:18:53.846Z,7.90
2022-11-05T05:21:41.638Z,7.90
2022-11-05T05:24:21.510Z,7.80
2022-11-05T05:26:50.364Z,7.80
2022-11-05T05:29:18.382Z,7.80
2022-11-05T05:31:45.349Z,7.80
2022-11-05T05:34:13.847Z,7.80
2022-11-05T05:36:40.809Z,7.80
2022-11-05T05:39:13.303Z,7.80
2022-11-05T05:41:40.181Z,7.80
2022-11-05T05:44:07.188Z,7.80
2022-11-05T05:46:34.384Z,7.80
2022-11-05T05:49:01.362Z,7.80
2022-11-05T05:51:28.300Z,7.80
2022-11-05T05:53:55.347Z,7.80
2022-11-05T05:56:22.383Z,7.80
2022-11-05T05:58:49.449Z,7.70
2022-11-05T06:01:19.593Z,7.80
2022-11-05T06:03:48.285Z,7.80
2022-11-05T06:06:19.701Z,7.80
2022-11-05T06:08:47.599Z,7.80
2022-11-05T06:11:14.480Z,7.80
2022-11-05T06:13:41.386Z,7.80
2022-11-05T06:16:09.432Z,7.80
2022-11-05T06:18:37.446Z,7.80
2022-11-05T06:21:08.867Z,7.80
2022-11-05T06:23:37.767Z,7.90
2022-11-05T06:26:07.318Z,7.90
2022-11-05T06:28:34.851Z,7.90
2022-11-05T06:31:01.989Z,7.90
2022-11-05T06:33:28.945Z,7.90
2022-11-05T06:35:58.886Z,7.90
2022-11-05T06:38:26.030Z,7.90
2022-11-05T06:40:52.900Z,7.90
2022-11-05T06:43:19.788Z,7.90
2022-11-05T06:45:46.644Z,7.90
2022-11-05T06:48:13.546Z,7.90
2022-11-05T06:50:45.277Z,7.90
2022-11-05T06:53:13.105Z,7.90
2022-11-05T06:55:40.676Z,7.90
2022-11-05T06:58:07.599Z,7.90
2022-11-05T07:00:34.548Z,7.90
2022-11-05T07:03:09.255Z,7.90
2022-11-05T07:05:40.577Z,7.90
2022-11-05T07:08:07.512Z,7.90
2022-11-05T07:10:34.424Z,7.90
2022-11-05T07:13:06.624Z,7.90
2022-11-05T07:15:34.944Z,8.00
2022-11-05T07:18:01.952Z,8.00
2022-11-05T07:20:33.536Z,7.90
2022-11-05T07:23:06.788Z,8.00
2022-11-05T07:25:34.618Z,8.00
2022-11-05T07:28:02.343Z,8.00
2022-11-05T07:30:29.667Z,8.00
2022-11-05T07:32:56.927Z,8.10
2022-11-05T07:35:24.208Z,8.10
2022-11-05T07:37:54.122Z,8.10
2022-11-05T07:40:22.468Z,8.20
2022-11-05T07:42:54.187Z,8.20
2022-11-05T07:45:21.468Z,8.20
2022-11-05T07:47:58.863Z,8.30
2022-11-05T07:50:28.593Z,8.30
2022-11-05T07:53:01.164Z,8.40
2022-11-05T07:55:28.242Z,8.40
2022-11-05T07:57:55.077Z,8.30
2022-11-05T08:00:24.643Z,8.40
2022-11-05T08:03:08.206Z,8.40
2022-11-05T08:05:38.220Z,8.40
2022-11-05T08:08:06.778Z,8.40
2022-11-05T08:10:36.988Z,8.40
2022-11-05T08:13:05.008Z,8.40
2022-11-05T08:15:32.875Z,8.50
2022-11-05T08:18:00.870Z,8.50
2022-11-05T08:20:28.362Z,8.60
2022-11-05T08:22:56.106Z,8.70
2022-11-05T08:25:23.989Z,8.80
2022-11-05T08:28:05.774Z,8.80
2022-11-05T08:30:33.551Z,8.90
2022-11-05T08:33:11.332Z,8.90
2022-11-05T08:35:39.380Z,8.90
2022-11-05T08:38:08.174Z,8.90
2022-11-05T08:40:36.650Z,9.00
2022-11-05T08:43:05.475Z,9.00
2022-11-05T08:45:33.181Z,9.00
2022-11-05T08:48:05.097Z,9.00
2022-11-05T08:50:32.122Z,8.90
2022-11-05T08:52:59.100Z,8.90
2022-11-05T08:55:26.575Z,8.90
2022-11-05T08:57:58.193Z,9.00
2022-11-05T09:00:26.158Z,9.00
2022-11-05T09:02:53.128Z,9.10
2022-11-05T09:05:20.327Z,9.10
2022-11-05T09:07:47.398Z,9.10
2022-11-05T09:10:14.371Z,9.20
2022-11-05T09:12:41.387Z,9.30
2022-11-05T09:15:09.305Z,9.40
2022-11-05T09:17:36.703Z,9.40
2022-11-05T09:20:05.089Z,9.50
2022-11-05T09:22:32.006Z,9.40
2022-11-05T09:24:58.897Z,9.40
2022-11-05T09:27:26.567Z,9.40
2022-11-05T09:29:53.427Z,9.40
2022-11-05T09:32:21.120Z,9.40
2022-11-05T09:34:49.092Z,9.40
2022-11-05T09:37:16.699Z,9.40
2022-11-05T09:39:43.599Z,9.40
2022-11-05T09:42:16.881Z,9.40
2022-11-05T09:44:54.890Z,9.40
2022-11-05T09:47:39.715Z,9.40
2022-11-05T09:50:08.119Z,9.40
2022-11-05T09:52:35.278Z,9.40
2022-11-05T09:55:04.751Z,9.40
2022-11-05T09:57:40.472Z,9.40
2022-11-05T10:00:08.691Z,9.30
2022-11-05T10:02:42.844Z,9.40
2022-11-05T10:05:12.490Z,9.40
2022-11-05T10:07:53.210Z,9.50
2022-11-05T10:10:33.269Z,9.40
2022-11-05T10:13:29.956Z,9.50
2022-11-05T10:16:28.462Z,9.50
2022-11-05T10:19:09.869Z,9.60
2022-11-05T10:22:04.830Z,9.70
2022-11-05T10:24:25.186Z,9.70
2022-11-05T10:26:54.422Z,9.70
2022-11-05T10:29:33.533Z,9.80
2022-11-05T10:32:03.296Z,9.70
2022-11-05T10:34:34.328Z,9.70
2022-11-05T10:37:01.512Z,9.70
2022-11-05T10:39:32.256Z,9.70
2022-11-05T10:42:32.574Z,9.80
2022-11-05T10:45:07.134Z,9.80
2022-11-05T10:47:50.105Z,9.80
2022-11-05T10:50:28.230Z,9.80
2022-11-05T10:53:14.065Z,9.80
2022-11-05T10:55:46.738Z,9.90
2022-11-05T10:58:13.578Z,10.00
2022-11-05T11:00:40.815Z,10.00
2022-11-05T11:03:30.730Z,9.80
2022-11-05T11:06:03.889Z,9.90
2022-11-05T11:08:35.567Z,10.00
2022-11-05T11:11:11.577Z,9.90
2022-11-05T11:13:56.938Z,9.90
2022-11-05T11:16:31.233Z,9.90
2022-11-05T11:19:03.391Z,9.90
2022-11-05T11:21:32.217Z,10.00
2022-11-05T11:24:06.645Z,10.10
2022-11-05T11:26:35.546Z,10.20
2022-11-05T11:29:20.495Z,10.30
2022-11-05T11:31:47.681Z,10.40
2022-11-05T11:34:28.976Z,10.40
2022-11-05T11:37:05.445Z,10.40
2022-11-05T11:39:33.197Z,10.40
2022-11-05T11:42:05.620Z,10.40
2022-11-05T11:44:40.877Z,10.50
2022-11-05T11:47:14.149Z,10.60
2022-11-05T11:49:57.266Z,10.60
2022-11-05T11:52:34.885Z,10.60
2022-11-05T11:55:13.690Z,10.70
2022-11-05T11:58:04.797Z,10.70
2022-11-05T12:00:39.804Z,10.70
2022-11-05T12:03:14.631Z,10.80
2022-11-05T12:05:56.526Z,10.70
2022-11-05T12:08:45.390Z,10.60
2022-11-05T12:11:12.568Z,10.70
2022-11-05T12:14:17.480Z,10.70
2022-11-05T12:17:02.857Z,10.70
2022-11-05T12:19:53.047Z,10.70
2022-11-05T12:22:50.380Z,10.80
2022-11-05T12:25:17.230Z,10.80
2022-11-05T12:28:01.820Z,10.80
2022-11-05T12:30:43.140Z,10.70
2022-11-05T12:33:23.568Z,10.70
2022-11-05T12:36:10.075Z,10.80
2022-11-05T12:39:13.102Z,10.80
2022-11-05T12:41:53.677Z,10.80
2022-11-05T12:44:47.264Z,10.70
2022-11-05T12:47:52.441Z,10.70
2022-11-05T12:50:38.074Z,10.60
2022-11-05T12:53:32.586Z,10.60
2022-11-05T12:56:04.824Z,10.60
2022-11-05T12:58:40.340Z,10.50
2022-11-05T13:01:30.769Z,10.60
2022-11-05T13:04:13.764Z,10.50
2022-11-05T13:06:44.595Z,10.50
2022-11-05T13:09:19.259Z,10.50
2022-11-05T13:12:04.203Z,10.50
2022-11-05T13:14:43.320Z,10.50
2022-11-05T13:17:20.363Z,10.50
2022-11-05T13:20:17.764Z,10.60
2022-11-05T13:23:10.850Z,10.50
2022-11-05T13:25:42.026Z,10.50
2022-11-05T13:28:24.204Z,10.50
2022-11-05T13:30:55.429Z,10.40
2022-11-05T13:33:34.737Z,10.40
2022-11-05T13:36:40.375Z,10.40
2022-11-05T13:39:16.568Z,10.40
2022-11-05T13:42:13.837Z,10.50
2022-11-05T13:45:17.989Z,10.50
2022-11-05T13:47:53.934Z,10.60
2022-11-05T13:51:02.871Z,10.60
2022-11-05T13:53:39.655Z,10.60
2022-11-05T13:56:09.734Z,10.60
2022-11-05T13:59:04.204Z,10.50
2022-11-05T14:01:49.799Z,10.50
2022-11-05T14:04:32.313Z,10.40
2022-11-05T14:07:06.822Z,10.30
2022-11-05T14:09:36.476Z,10.30
2022-11-05T14:12:05.242Z,10.20
2022-11-05T14:14:44.135Z,10.10
2022-11-05T14:17:10.993Z,10.10
2022-11-05T14:19:52.040Z,10.00
2022-11-05T14:22:32.435Z,10.00
2022-11-05T14:25:00.561Z,10.00
2022-11-05T14:27:40.051Z,10.10
2022-11-05T14:30:42.479Z,10.10
2022-11-05T14:33:35.750Z,10.10
2022-11-05T14:36:20.999Z,10.10
2022-11-05T14:38:51.610Z,10.00
2022-11-05T14:41:20.123Z,10.00
2022-11-05T14:44:05.096Z,9.90
2022-11-05T14:46:48.018Z,9.90
2022-11-05T14:49:25.488Z,9.80
2022-11-05T14:52:00.926Z,9.70
2022-11-05T14:54:36.908Z,9.50
2022-11-05T14:57:04.207Z,9.40
2022-11-05T14:59:33.451Z,9.40
2022-11-05T15:02:15.249Z,9.30
2022-11-05T15:04:45.699Z,9.30
2022-11-05T15:07:34.352Z,9.20
2022-11-05T15:10:23.326Z,9.10
2022-11-05T15:12:56.845Z,9.00
2022-11-05T15:15:28.952Z,8.90
2022-11-05T15:18:04.578Z,8.80
2022-11-05T15:20:40.490Z,8.70
2022-11-05T15:23:12.859Z,8.60
2022-11-05T15:26:01.538Z,8.50
2022-11-05T15:28:43.891Z,8.50
2022-11-05T15:31:13.809Z,8.30
2022-11-05T15:33:42.125Z,8.30
2022-11-05T15:36:23.854Z,8.20
2022-11-05T15:39:08.474Z,8.30
2022-11-05T15:41:38.325Z,8.40
2022-11-05T15:44:05.205Z,8.30
2022-11-05T15:46:32.255Z,8.20
2022-11-05T15:49:05.583Z,8.00
2022-11-05T15:51:33.010Z,7.90
2022-11-05T15:56:58.845Z,7.70
2022-11-05T15:59:28.513Z,7.70
2022-11-05T16:02:16.176Z,7.70
2022-11-05T16:04:47.683Z,7.70
2022-11-05T16:07:15.196Z,7.50
2022-11-05T16:09:50.992Z,7.40
2022-11-05T16:12:21.102Z,7.50
2022-11-05T16:15:19.762Z,7.40
2022-11-05T16:17:51.333Z,7.40
2022-11-05T16:20:24.543Z,7.40
2022-11-05T16:22:55.384Z,7.30
2022-11-05T16:25:31.965Z,7.30
2022-11-05T16:28:00.132Z,7.20
2022-11-05T16:30:28.014Z,7.20
2022-11-05T16:32:55.698Z,7.10
2022-11-05T16:35:24.866Z,6.90
2022-11-05T16:37:52.839Z,6.90
2022-11-05T16:40:22.442Z,6.80
2022-11-05T16:42:51.665Z,6.70
2022-11-05T16:45:21.578Z,6.70
2022-11-05T16:47:49.481Z,6.80
2022-11-05T16:50:20.114Z,6.80
2022-11-05T16:52:47.750Z,7.00
2022-11-05T16:55:15.811Z,7.00
2022-11-05T16:57:45.149Z,6.90
2022-11-05T17:00:16.374Z,7.10
2022-11-05T17:02:43.575Z,7.00
2022-11-05T17:05:23.205Z,7.00
2022-11-05T17:07:50.216Z,7.00
2022-11-05T17:10:17.829Z,7.00
2022-11-05T17:12:45.629Z,7.10
2022-11-05T17:15:17.495Z,7.10
2022-11-05T17:17:44.644Z,7.30
2022-11-05T17:23:58.787Z,7.40
2022-11-05T17:26:25.703Z,7.50
2022-11-05T17:28:52.558Z,7.50
2022-11-05T17:31:19.763Z,7.50
2022-11-05T17:33:46.669Z,7.50
2022-11-05T17:36:16.076Z,7.30
2022-11-05T17:38:43.505Z,7.20
2022-11-05T17:41:15.782Z,7.10
2022-11-05T17:43:43.491Z,7.20
2022-11-05T17:46:12.297Z,7.10
2022-11-05T17:48:40.254Z,7.20
2022-11-05T17:51:12.186Z,7.00
2022-11-05T17:53:39.411Z,7.30
2022-11-05T17:56:11.010Z,7.20
2022-11-05T17:58:38.524Z,7.10
2022-11-05T18:01:06.947Z,7.40
2022-11-05T18:03:34.001Z,7.30
2022-11-05T18:06:05.626Z,7.40
2022-11-05T18:08:33.512Z,7.40
2022-11-05T18:11:00.653Z,7.30
2022-11-05T18:13:28.001Z,7.30
2022-11-05T18:15:55.269Z,7.30
2022-11-05T18:18:22.429Z,7.20
2022-11-05T18:20:49.431Z,7.10
2022-11-05T18:23:16.329Z,7.00
2022-11-05T18:25:43.556Z,7.10
2022-11-05T18:28:10.732Z,7.10
2022-11-05T18:30:38.858Z,7.30
2022-11-05T18:33:05.873Z,7.30
2022-11-05T18:35:32.797Z,7.40
2022-11-05T18:37:59.897Z,7.50
2022-11-05T18:40:27.794Z,7.40
2022-11-05T18:42:54.725Z,7.40
2022-11-05T18:45:26.887Z,7.40
2022-11-05T18:47:56.415Z,7.30
2022-11-05T18:50:23.275Z,7.30
2022-11-05T18:52:50.156Z,7.20
2022-11-05T18:55:17.083Z,7.20
2022-11-05T18:57:44.034Z,7.10
2022-11-05T19:00:12.631Z,7.10
2022-11-05T19:02:39.755Z,7.30
2022-11-05T19:05:28.094Z,7.40
2022-11-05T19:07:54.029Z,7.30
2022-11-05T19:10:21.099Z,7.10
2022-11-05T19:12:48.039Z,7.20
2022-11-05T19:15:14.950Z,7.20
2022-11-05T19:17:41.872Z,7.20
2022-11-05T19:20:09.364Z,7.20
2022-11-05T19:22:36.757Z,7.10
2022-11-05T19:25:04.341Z,7.00
2022-11-05T19:27:31.251Z,7.10
2022-11-05T19:29:58.190Z,7.10
2022-11-05T19:32:25.202Z,7.30
2022-11-05T19:34:52.245Z,7.20
2022-11-05T19:37:20.007Z,7.10
2022-11-05T19:39:46.948Z,7.10
2022-11-05T19:42:13.849Z,7.10
2022-11-05T19:44:40.963Z,7.00
2022-11-05T19:47:07.865Z,6.90
2022-11-05T19:49:34.852Z,7.00
2022-11-05T19:52:01.866Z,6.90
2022-11-05T19:54:28.785Z,6.80
2022-11-05T19:56:55.920Z,6.70
2022-11-05T19:59:22.885Z,6.80
2022-11-05T20:01:49.946Z,6.70
2022-11-05T20:04:16.946Z,6.70
2022-11-05T20:06:43.851Z,6.60
2022-11-05T20:09:22.607Z,6.50
2022-11-05T20:11:56.599Z,6.40
2022-11-05T20:14:25.677Z,6.30
2022-11-05T20:16:53.505Z,6.10
2022-11-05T20:19:22.344Z,6.10
2022-11-05T20:21:49.457Z,6.50
2022-11-05T20:24:23.794Z,6.70
2022-11-05T20:26:51.840Z,6.90
2022-11-05T20:29:18.927Z,7.00
2022-11-05T20:31:45.870Z,7.20
2022-11-05T20:34:12.967Z,7.10
2022-11-05T20:36:40.112Z,6.90
2022-11-05T20:39:07.178Z,7.20
2022-11-05T20:41:34.092Z,7.20
2022-11-05T20:44:01.015Z,7.10
2022-11-05T20:46:28.840Z,7.10
2022-11-05T20:48:55.903Z,7.10
2022-11-05T20:51:25.083Z,7.10
2022-11-05T20:53:56.929Z,7.10
2022-11-05T20:56:27.428Z,7.00
2022-11-05T20:58:57.903Z,7.10
2022-11-05T21:01:26.730Z,7.10
2022-11-05T21:03:54.142Z,7.00
2022-11-05T21:06:21.302Z,7.20
2022-11-05T21:08:50.186Z,7.20
2022-11-05T21:11:18.350Z,7.10
2022-11-05T21:13:45.749Z,7.10
2022-11-05T21:16:18.075Z,7.00
2022-11-05T21:18:46.134Z,7.00
2022-11-05T21:21:18.385Z,7.00
2022-11-05T21:23:45.395Z,7.00
2022-11-05T21:26:13.968Z,6.90
2022-11-05T21:28:41.575Z,6.90
2022-11-05T21:31:08.971Z,6.90
2022-11-05T21:33:36.290Z,6.80
2022-11-05T21:36:09.161Z,6.70
2022-11-05T21:38:36.619Z,6.70
2022-11-05T21:41:04.824Z,6.70
2022-11-05T21:43:31.851Z,6.80
2022-11-05T21:46:02.463Z,6.90
2022-11-05T21:48:29.699Z,6.70
2022-11-05T21:51:15.062Z,6.80
2022-11-05T21:54:00.782Z,6.80
2022-11-05T21:56:46.886Z,6.80
2022-11-05T21:59:34.706Z,6.70
2022-11-05T22:02:02.627Z,6.70
2022-11-05T22:04:32.140Z,6.50
2022-11-05T22:06:59.477Z,6.60
2022-11-05T22:09:26.993Z,6.50
2022-11-05T22:11:54.266Z,6.50
2022-11-05T22:14:21.563Z,6.50
2022-11-05T22:16:48.720Z,6.60
2022-11-05T22:19:15.693Z,6.50
2022-11-05T22:21:42.607Z,6.50
2022-11-05T22:24:09.948Z,6.40
2022-11-05T22:26:38.458Z,6.50
2022-11-05T22:29:06.491Z,6.40
2022-11-05T22:31:36.432Z,6.30
2022-11-05T22:34:04.833Z,6.30
2022-11-05T22:36:33.338Z,6.40
2022-11-05T22:39:00.372Z,6.30
2022-11-05T22:41:27.239Z,6.20
2022-11-05T22:43:54.401Z,6.40
2022-11-05T22:46:23.566Z,6.40
2022-11-05T22:48:51.373Z,6.30
2022-11-05T22:51:27.090Z,6.20
2022-11-05T22:53:57.687Z,6.20
2022-11-05T22:56:32.249Z,6.30
2022-11-05T22:58:59.409Z,6.50
2022-11-05T23:01:26.659Z,6.30
2022-11-05T23:03:56.621Z,6.20
2022-11-05T23:06:52.282Z,6.30
2022-11-05T23:09:46.068Z,6.10
2022-11-05T23:12:29.773Z,6.10
2022-11-05T23:14:58.631Z,6.10
2022-11-05T23:17:44.304Z,6.00
2022-11-05T23:20:38.756Z,6.00
2022-11-05T23:23:29.035Z,6.10
2022-11-05T23:26:00.124Z,6.00
2022-11-05T23:28:27.339Z,5.90
2022-11-05T23:31:23.315Z,5.80
2022-11-05T23:33:50.221Z,5.90
2022-11-05T23:36:37.347Z,5.90
2022-11-05T23:39:04.286Z,5.90
2022-11-05T23:41:49.649Z,5.70
2022-11-05T23:44:35.334Z,5.70
2022-11-05T23:47:20.669Z,5.50
2022-11-05T23:49:47.555Z,5.60
2022-11-05T23:52:14.479Z,5.60
2022-11-05T23:54:41.411Z,5.60
2022-11-05T23:57:08.294Z,5.50
2022-11-05T23:59:35.152Z,5.40
